Time;durP1;ratioP1;P1;durP2;ratioP2;P2;SDS_P1;SDS_P2;PMS_P1;PMS_P2;Temp;Humidity;BMP_temperature;BMP_pressure;BME280_temperature;BME280_humidity;BME280_pressure;Samples;Min_cycle;Max_cycle;Signal;HPM_P1;HPM_P2
2023/01/30 03:02:43;;;;;;;18.87;16.93;;;-1.60;99.90;;;;;;5231481;23;20480;-76
2023/01/30 03:05:31;;;;;;;18.03;16.17;;;-1.50;99.90;;;;;;4920143;29;20669;-80
2023/01/30 03:08:08;;;;;;;17.53;15.93;;;-1.50;99.90;;;;;;4920929;29;20460;-79
2023/01/30 03:10:42;;;;;;;20.87;18.23;;;-1.50;99.90;;;;;;4917728;29;20455;-79
2023/01/30 03:13:14;;;;;;;18.83;16.90;;;-1.50;99.90;;;;;;4925203;29;20493;-77
2023/01/30 03:15:46;;;;;;;20.10;17.93;;;-1.50;99.90;;;;;;4925810;29;20460;-76
2023/01/30 03:18:13;;;;;;;21.67;18.37;;;-1.50;99.90;;;;;;4926281;29;20476;-79
2023/01/30 03:20:41;;;;;;;19.93;17.83;;;-1.50;99.90;;;;;;4926068;29;20499;-78
2023/01/30 03:23:08;;;;;;;20.63;17.90;;;-1.50;99.90;;;;;;4926739;29;20473;-78
2023/01/30 03:25:38;;;;;;;18.70;16.80;;;-1.50;99.90;;;;;;4921080;29;20489;-78
2023/01/30 03:28:06;;;;;;;20.20;18.30;;;-1.50;99.90;;;;;;4921135;29;20876;-78
2023/01/30 03:30:33;;;;;;;19.43;17.33;;;-1.50;99.90;;;;;;4923348;29;20456;-79
2023/01/30 03:33:07;;;;;;;19.87;17.73;;;-1.50;99.90;;;;;;4925624;29;20452;-79
2023/01/30 03:35:36;;;;;;;18.13;16.23;;;-1.60;99.90;;;;;;4926471;29;20982;-77
2023/01/30 03:38:05;;;;;;;19.10;17.20;;;-1.60;99.90;;;;;;4924602;29;20473;-76
2023/01/30 03:40:32;;;;;;;19.50;17.60;;;-1.60;99.90;;;;;;4927566;29;20432;-76
2023/01/30 03:42:59;;;;;;;19.03;17.13;;;-1.50;99.90;;;;;;4925227;29;20490;-76
2023/01/30 03:45:26;;;;;;;19.10;17.17;;;-1.50;99.90;;;;;;4921034;29;20456;-79
2023/01/30 03:47:54;;;;;;;19.73;17.73;;;-1.50;99.90;;;;;;4921864;29;20452;-78
2023/01/30 03:50:20;;;;;;;19.60;17.50;;;-1.50;99.90;;;;;;4927963;29;20438;-77
2023/01/30 03:52:47;;;;;;;19.83;17.63;;;-1.50;99.90;;;;;;4924302;29;20483;-80
2023/01/30 03:55:19;;;;;;;18.90;17.00;;;-1.50;99.90;;;;;;4925301;29;20497;-82
2023/01/30 03:57:46;;;;;;;19.30;17.20;;;-1.40;99.90;;;;;;4914442;29;20480;-82
2023/01/30 04:00:15;;;;;;;19.13;17.33;;;-1.30;99.90;;;;;;4912204;29;20456;-82
2023/01/30 04:02:48;;;;;;;19.50;17.40;;;-1.20;99.90;;;;;;4913804;29;20501;-83
2023/01/30 04:05:17;;;;;;;18.60;16.60;;;-1.10;99.90;;;;;;4914819;29;20535;-83
2023/01/30 04:07:50;;;;;;;18.23;16.53;;;-1.00;99.90;;;;;;4914532;29;20533;-83
2023/01/30 04:10:18;;;;;;;18.17;16.37;;;-1.00;99.90;;;;;;4913034;29;20456;-83
2023/01/30 04:12:46;;;;;;;18.67;16.83;;;-0.90;99.90;;;;;;4914610;29;20476;-83
2023/01/30 04:15:13;;;;;;;19.37;17.47;;;-0.90;99.90;;;;;;4917803;29;20508;-82
2023/01/30 04:18:03;;;;;;;18.73;16.83;;;-0.90;99.90;;;;;;4905798;29;20913;-81
2023/01/30 04:20:49;;;;;;;17.63;16.00;;;-0.90;99.90;;;;;;4913202;29;21325;-83
2023/01/30 04:23:21;;;;;;;19.53;17.60;;;-0.90;99.90;;;;;;4923845;29;20507;-82
2023/01/30 04:25:49;;;;;;;19.17;17.07;;;-0.90;99.90;;;;;;4926015;29;20940;-84
2023/01/30 04:28:18;;;;;;;19.03;17.13;;;-0.90;99.90;;;;;;4923669;29;20456;-83
2023/01/30 04:30:45;;;;;;;19.03;17.10;;;-0.90;99.90;;;;;;4919250;29;20534;-84
2023/01/30 04:33:39;;;;;;;19.17;17.27;;;-0.80;99.90;;;;;;4913596;29;20447;-84
2023/01/30 04:36:09;;;;;;;19.23;17.20;;;-0.80;99.90;;;;;;4919484;29;20452;-84
2023/01/30 04:38:37;;;;;;;18.30;16.47;;;-0.90;99.90;;;;;;4921734;29;20500;-82
2023/01/30 04:41:06;;;;;;;19.00;17.20;;;-0.80;99.90;;;;;;4921929;29;20460;-83
2023/01/30 04:44:01;;;;;;;18.87;16.97;;;-0.80;99.90;;;;;;4922537;29;20458;-83
2023/01/30 04:46:43;;;;;;;18.67;16.77;;;-0.90;99.90;;;;;;4923511;29;20839;-83
2023/01/30 04:49:11;;;;;;;19.00;17.07;;;-0.80;99.90;;;;;;4923548;29;20489;-83
2023/01/30 04:51:38;;;;;;;20.10;17.90;;;-0.80;99.90;;;;;;4918867;29;20467;-83
2023/01/30 04:54:06;;;;;;;18.87;17.07;;;-0.80;99.90;;;;;;4920908;29;20971;-79
2023/01/30 04:56:34;;;;;;;20.57;18.37;;;-0.80;99.90;;;;;;4930472;29;20508;-79
2023/01/30 04:59:01;;;;;;;19.70;17.80;;;-0.80;99.90;;;;;;4930611;29;20479;-79
2023/01/30 05:01:34;;;;;;;20.03;18.10;;;-0.90;99.90;;;;;;4919075;29;20487;-79
2023/01/30 05:04:01;;;;;;;19.47;17.57;;;-0.90;99.90;;;;;;4926240;29;20467;-78
2023/01/30 05:06:30;;;;;;;19.13;17.33;;;-0.80;99.90;;;;;;4921090;29;21029;-79
2023/01/30 05:08:57;;;;;;;19.80;17.90;;;-0.80;99.90;;;;;;4927469;29;20539;-79
2023/01/30 05:11:25;;;;;;;20.10;18.10;;;-0.80;99.90;;;;;;4929314;29;20455;-79
2023/01/30 05:13:53;;;;;;;19.37;17.47;;;-0.70;99.90;;;;;;4926672;29;20463;-79
2023/01/30 05:16:21;;;;;;;20.33;18.40;;;-0.60;99.90;;;;;;4922732;29;20500;-78
2023/01/30 05:18:49;;;;;;;19.37;17.53;;;-0.60;99.90;;;;;;4931322;29;20479;-78
2023/01/30 05:21:17;;;;;;;21.30;19.10;;;-0.60;99.90;;;;;;4925043;29;20527;-79
2023/01/30 05:23:45;;;;;;;19.33;17.53;;;-0.50;99.90;;;;;;4927344;29;20461;-79
2023/01/30 05:26:12;;;;;;;18.90;17.17;;;-0.50;99.90;;;;;;4929494;29;20468;-79
2023/01/30 05:28:39;;;;;;;18.87;16.97;;;-0.40;99.90;;;;;;4926850;29;20444;-79
2023/01/30 05:31:09;;;;;;;18.80;16.90;;;-0.40;99.90;;;;;;4926398;29;20522;-78
2023/01/30 05:33:37;;;;;;;18.40;16.70;;;-0.40;99.90;;;;;;4923784;29;20518;-78
2023/01/30 05:36:04;;;;;;;19.20;17.33;;;-0.30;99.90;;;;;;4929320;29;20456;-78
2023/01/30 05:38:31;;;;;;;19.03;17.13;;;-0.30;99.90;;;;;;4927063;29;20479;-78
2023/01/30 05:40:59;;;;;;;20.13;18.13;;;-0.30;99.90;;;;;;4925801;29;20457;-80
2023/01/30 05:43:26;;;;;;;19.90;17.97;;;-0.30;99.90;;;;;;4929553;29;20444;-79
2023/01/30 05:45:54;;;;;;;19.57;17.67;;;-0.30;99.90;;;;;;4926500;29;20458;-79
2023/01/30 05:48:23;;;;;;;18.83;17.03;;;-0.30;99.90;;;;;;4926893;29;20543;-78
2023/01/30 05:50:50;;;;;;;19.77;17.77;;;-0.30;99.90;;;;;;4925337;29;20463;-79
2023/01/30 05:53:17;;;;;;;18.40;16.80;;;-0.30;99.90;;;;;;4927768;29;20889;-79
2023/01/30 05:55:44;;;;;;;19.60;17.70;;;-0.30;99.90;;;;;;4927280;29;20954;-79
2023/01/30 05:58:11;;;;;;;19.43;17.63;;;-0.30;99.90;;;;;;4924123;29;20484;-79
2023/01/30 06:00:38;;;;;;;19.07;17.27;;;-0.30;99.90;;;;;;4926446;29;20451;-79
2023/01/30 06:03:05;;;;;;;19.70;17.87;;;-0.20;99.90;;;;;;4926481;29;20513;-79
2023/01/30 06:05:33;;;;;;;17.87;16.27;;;-0.20;99.90;;;;;;4928102;29;20436;-79
2023/01/30 06:08:00;;;;;;;18.87;17.07;;;-0.20;99.90;;;;;;4926108;29;20554;-79
2023/01/30 06:10:27;;;;;;;18.97;17.27;;;-0.20;99.90;;;;;;4926215;29;20776;-78
2023/01/30 06:12:53;;;;;;;18.13;16.50;;;-0.20;99.90;;;;;;4922777;29;20454;-78
2023/01/30 06:15:20;;;;;;;18.27;16.57;;;-0.20;99.90;;;;;;4926318;29;20890;-79
2023/01/30 06:17:47;;;;;;;18.47;16.67;;;-0.20;99.90;;;;;;4927889;29;20524;-79
2023/01/30 06:20:14;;;;;;;18.10;16.40;;;-0.10;99.90;;;;;;4927765;29;20453;-79
2023/01/30 06:22:42;;;;;;;17.20;15.77;;;-0.10;99.90;;;;;;4924048;29;20480;-79
2023/01/30 06:25:09;;;;;;;17.57;16.07;;;0.00;99.90;;;;;;4928873;29;20444;-79
2023/01/30 06:27:36;;;;;;;17.27;15.67;;;0.00;99.90;;;;;;4925282;29;20528;-79
2023/01/30 06:30:04;;;;;;;16.47;15.00;;;0.00;99.90;;;;;;4923734;29;20505;-79
2023/01/30 06:32:31;;;;;;;17.20;15.67;;;0.00;99.90;;;;;;4926502;29;21069;-79
2023/01/30 06:34:57;;;;;;;17.47;15.97;;;0.00;99.90;;;;;;4926691;29;20446;-79
2023/01/30 06:37:24;;;;;;;16.03;14.70;;;-0.10;99.90;;;;;;4926480;29;20505;-79
2023/01/30 06:39:52;;;;;;;18.80;17.10;;;-0.10;99.90;;;;;;4928733;29;20460;-79
2023/01/30 06:42:19;;;;;;;17.80;16.17;;;-0.10;99.90;;;;;;4931121;29;21218;-79
2023/01/30 06:44:46;;;;;;;17.80;16.10;;;-0.10;99.90;;;;;;4927150;29;20462;-78
2023/01/30 06:47:13;;;;;;;17.00;15.50;;;-0.20;99.90;;;;;;4928478;29;20437;-79
2023/01/30 06:49:39;;;;;;;17.60;16.10;;;-0.20;99.90;;;;;;4934248;29;20518;-79
2023/01/30 06:52:06;;;;;;;18.63;16.93;;;-0.20;99.90;;;;;;4925881;29;20888;-79
2023/01/30 06:54:33;;;;;;;17.90;16.40;;;-0.20;99.90;;;;;;4929148;29;20440;-79
2023/01/30 06:57:01;;;;;;;16.60;15.13;;;-0.10;99.90;;;;;;4929141;29;20503;-78
2023/01/30 06:59:28;;;;;;;17.60;15.80;;;-0.10;99.90;;;;;;4917041;29;20480;-78
2023/01/30 07:01:55;;;;;;;18.17;16.57;;;-0.10;99.90;;;;;;4930000;29;20480;-79
2023/01/30 07:04:21;;;;;;;17.17;15.57;;;0.00;99.90;;;;;;4928339;29;20444;-78
2023/01/30 07:06:48;;;;;;;16.60;15.13;;;0.00;99.90;;;;;;4927058;29;20889;-78
2023/01/30 07:09:15;;;;;;;16.00;14.60;;;0.00;99.90;;;;;;4922213;29;20460;-79
2023/01/30 07:11:42;;;;;;;16.37;14.93;;;0.10;99.90;;;;;;4923066;29;20549;-78
2023/01/30 07:14:10;;;;;;;15.13;13.93;;;0.10;99.90;;;;;;4926957;29;20474;-76
2023/01/30 07:16:37;;;;;;;15.67;14.37;;;0.10;99.90;;;;;;4928023;29;20436;-79
2023/01/30 07:19:04;;;;;;;16.37;14.90;;;0.10;99.90;;;;;;4924168;29;20557;-83
2023/01/30 07:21:31;;;;;;;16.83;15.40;;;0.20;99.90;;;;;;4926903;29;20457;-78
2023/01/30 07:23:58;;;;;;;16.53;14.97;;;0.20;99.90;;;;;;4929017;29;20518;-79
2023/01/30 07:26:25;;;;;;;17.00;15.00;;;0.20;99.90;;;;;;4922722;29;21233;-78
2023/01/30 07:28:52;;;;;;;15.70;14.30;;;0.20;99.90;;;;;;4929202;29;20505;-78
2023/01/30 07:31:20;;;;;;;16.27;14.83;;;0.30;99.90;;;;;;4924274;29;20473;-78
2023/01/30 07:33:46;;;;;;;15.80;14.40;;;0.40;99.90;;;;;;4926318;29;20438;-78
2023/01/30 07:36:13;;;;;;;16.30;14.97;;;0.40;99.90;;;;;;4927162;29;20497;-79
2023/01/30 07:38:40;;;;;;;15.30;14.03;;;0.50;99.90;;;;;;4925262;29;20996;-79
2023/01/30 07:41:07;;;;;;;14.97;13.67;;;0.60;99.90;;;;;;4926537;29;20498;-78
2023/01/30 07:43:33;;;;;;;15.13;13.90;;;0.70;99.90;;;;;;4920873;29;20532;-79
2023/01/30 07:46:00;;;;;;;14.77;13.63;;;0.80;99.90;;;;;;4928467;29;20441;-78
2023/01/30 07:48:28;;;;;;;15.10;13.93;;;0.90;99.90;;;;;;4929290;29;20446;-78
2023/01/30 07:50:56;;;;;;;15.67;14.40;;;1.00;99.90;;;;;;4925351;29;20513;-78
2023/01/30 07:53:23;;;;;;;14.40;13.30;;;1.10;99.90;;;;;;4921344;29;20553;-79
2023/01/30 07:55:50;;;;;;;13.70;12.70;;;1.20;99.90;;;;;;4922965;29;20463;-79
2023/01/30 07:58:17;;;;;;;14.03;12.93;;;1.30;99.90;;;;;;4923926;29;20478;-78
2023/01/30 08:00:44;;;;;;;14.60;13.50;;;1.40;99.90;;;;;;4922751;29;20530;-79
2023/01/30 08:03:13;;;;;;;14.40;13.20;;;1.40;99.90;;;;;;4925387;29;20481;-78
2023/01/30 08:05:41;;;;;;;14.40;13.37;;;1.50;99.90;;;;;;4923779;29;20502;-79
2023/01/30 08:08:08;;;;;;;14.63;13.53;;;1.50;99.90;;;;;;4926767;29;20459;-78
2023/01/30 08:10:35;;;;;;;14.50;13.37;;;1.60;99.90;;;;;;4922960;29;20501;-79
2023/01/30 08:13:01;;;;;;;13.93;12.93;;;1.60;99.90;;;;;;4922176;29;20230;-80
2023/01/30 08:15:30;;;;;;;13.90;12.77;;;1.60;99.90;;;;;;4923902;29;20949;-79
2023/01/30 08:17:57;;;;;;;14.30;13.10;;;1.70;99.90;;;;;;4918399;29;20465;-79
2023/01/30 08:20:26;;;;;;;15.10;13.90;;;1.80;99.90;;;;;;4940188;29;20540;-79
2023/01/30 08:22:54;;;;;;;14.00;12.90;;;1.80;99.90;;;;;;4922298;29;20578;-79
2023/01/30 08:25:21;;;;;;;13.87;12.77;;;1.80;99.90;;;;;;4929668;29;20453;-76
2023/01/30 08:27:48;;;;;;;13.90;12.90;;;1.90;99.90;;;;;;4930203;29;20513;-78
2023/01/30 08:30:15;;;;;;;13.87;12.87;;;1.90;99.90;;;;;;4926549;29;20476;-77
2023/01/30 08:32:42;;;;;;;14.47;13.00;;;1.90;99.90;;;;;;4927481;29;20512;-77
2023/01/30 08:35:10;;;;;;;14.13;13.03;;;2.00;99.90;;;;;;4930129;29;20439;-76
2023/01/30 08:37:38;;;;;;;14.47;13.37;;;2.00;99.90;;;;;;4923015;29;20468;-77
2023/01/30 08:40:08;;;;;;;13.80;12.70;;;2.00;99.90;;;;;;4928149;29;20479;-79
2023/01/30 08:42:34;;;;;;;14.27;13.10;;;2.10;99.90;;;;;;4928367;29;20476;-78
2023/01/30 08:45:01;;;;;;;13.63;12.63;;;2.10;99.90;;;;;;4932776;29;20203;-77
2023/01/30 08:47:28;;;;;;;15.23;14.03;;;2.10;99.90;;;;;;4917907;29;20459;-77
2023/01/30 08:49:55;;;;;;;15.40;14.20;;;2.20;99.90;;;;;;4926033;29;20443;-77
2023/01/30 08:52:22;;;;;;;14.80;13.50;;;2.20;99.90;;;;;;4928383;29;20451;-76
2023/01/30 08:54:48;;;;;;;13.93;12.83;;;2.40;99.90;;;;;;4928371;29;20471;-77
2023/01/30 08:57:16;;;;;;;14.23;13.03;;;2.50;99.90;;;;;;4922297;29;20432;-77
2023/01/30 08:59:43;;;;;;;13.60;12.50;;;2.80;99.90;;;;;;4920956;29;20476;-77
2023/01/30 09:02:11;;;;;;;12.67;11.67;;;3.00;99.90;;;;;;4921142;29;21027;-77
2023/01/30 09:04:37;;;;;;;12.33;11.33;;;3.10;99.90;;;;;;4927489;29;20215;-76
2023/01/30 09:07:05;;;;;;;12.33;11.50;;;3.10;99.90;;;;;;4930858;29;20448;-77
2023/01/30 09:09:31;;;;;;;13.03;11.93;;;3.00;99.90;;;;;;4924660;29;20731;-77
2023/01/30 09:11:58;;;;;;;13.27;12.20;;;2.90;99.90;;;;;;4925524;29;20345;-76
2023/01/30 09:14:26;;;;;;;13.60;12.53;;;2.90;99.90;;;;;;4923675;29;20393;-76
2023/01/30 09:16:55;;;;;;;13.47;12.47;;;2.80;99.90;;;;;;4923133;29;20212;-76
2023/01/30 09:19:21;;;;;;;13.27;12.23;;;2.80;99.90;;;;;;4925071;29;20663;-77
2023/01/30 09:21:49;;;;;;;14.10;12.90;;;2.80;99.90;;;;;;4920871;29;20222;-77
2023/01/30 09:24:16;;;;;;;12.90;11.90;;;2.90;99.90;;;;;;4934422;29;20643;-77
2023/01/30 09:26:44;;;;;;;13.43;12.43;;;3.00;99.90;;;;;;4925762;29;20727;-81
2023/01/30 09:29:11;;;;;;;13.53;12.53;;;3.20;99.90;;;;;;4926565;29;20206;-80
2023/01/30 09:31:39;;;;;;;13.20;12.20;;;3.40;99.90;;;;;;4926772;29;20724;-81
2023/01/30 09:34:06;;;;;;;13.20;12.30;;;3.60;99.90;;;;;;4930584;29;20203;-81
2023/01/30 09:36:33;;;;;;;14.00;12.90;;;3.80;99.90;;;;;;4925833;29;20318;-82
2023/01/30 09:39:00;;;;;;;13.40;12.40;;;3.90;99.90;;;;;;4924397;29;20585;-81
2023/01/30 09:41:46;;;;;;;12.77;11.77;;;3.90;99.90;;;;;;4929573;29;20688;-80
2023/01/30 09:44:45;;;;;;;12.87;11.97;;;3.80;99.90;;;;;;4926921;29;20207;-81
2023/01/30 09:47:18;;;;;;;12.67;11.70;;;3.70;99.90;;;;;;4927598;29;20259;-81
2023/01/30 09:49:55;;;;;;;12.60;11.60;;;3.70;99.90;;;;;;4927382;29;20202;-82
2023/01/30 09:52:30;;;;;;;12.47;11.57;;;3.70;99.90;;;;;;4928747;29;20297;-80
2023/01/30 09:55:02;;;;;;;12.63;11.63;;;4.00;99.90;;;;;;4926297;29;20207;-81
2023/01/30 09:57:29;;;;;;;13.17;12.20;;;4.20;99.90;;;;;;4923836;29;20737;-80
2023/01/30 10:00:02;;;;;;;12.47;11.57;;;4.40;99.90;;;;;;4919519;29;20207;-81
2023/01/30 10:02:49;;;;;;;12.80;11.83;;;4.60;99.90;;;;;;4920496;29;20235;-80
2023/01/30 10:05:16;;;;;;;12.50;11.63;;;4.70;99.90;;;;;;4928742;29;20260;-81
2023/01/30 10:07:59;;;;;;;12.60;11.60;;;4.90;99.90;;;;;;4927765;29;20205;-81
2023/01/30 10:10:39;;;;;;;13.07;12.07;;;5.00;99.90;;;;;;4927399;29;20192;-82
2023/01/30 10:13:22;;;;;;;13.23;12.20;;;5.10;99.90;;;;;;4926236;29;20227;-81
2023/01/30 10:15:52;;;;;;;12.70;11.70;;;5.20;99.90;;;;;;4920482;29;20213;-81
2023/01/30 10:18:49;;;;;;;12.47;11.27;;;5.20;99.90;;;;;;4921842;29;20205;-81
2023/01/30 10:21:26;;;;;;;12.13;11.23;;;5.20;99.90;;;;;;4921515;29;20221;-82
2023/01/30 10:24:08;;;;;;;11.67;10.80;;;5.20;99.90;;;;;;4927324;29;20259;-80
2023/01/30 10:26:35;;;;;;;11.70;10.80;;;5.10;99.90;;;;;;4928094;29;20200;-82
2023/01/30 10:29:06;;;;;;;11.90;11.00;;;5.10;99.90;;;;;;4925565;29;20200;-80
2023/01/30 10:31:42;;;;;;;11.70;10.90;;;5.10;99.90;;;;;;4926529;29;20775;-82
2023/01/30 10:34:14;;;;;;;12.10;11.07;;;5.10;99.90;;;;;;4928785;29;20195;-80
2023/01/30 10:36:46;;;;;;;11.97;11.10;;;5.20;99.90;;;;;;4925632;29;20208;-83
2023/01/30 10:39:22;;;;;;;12.40;11.37;;;5.40;99.90;;;;;;4923516;29;20216;-83
2023/01/30 10:41:56;;;;;;;12.50;11.33;;;5.50;99.90;;;;;;4925894;29;20216;-82
2023/01/30 10:44:23;;;;;;;12.13;11.23;;;5.40;99.90;;;;;;4937219;29;20210;-81
2023/01/30 10:47:08;;;;;;;11.67;10.77;;;5.40;99.90;;;;;;4927993;29;20664;-81
2023/01/30 10:49:41;;;;;;;11.90;11.00;;;5.50;99.90;;;;;;4921563;29;20201;-81
2023/01/30 10:52:23;;;;;;;11.13;10.43;;;5.40;99.90;;;;;;4927433;29;20276;-81
2023/01/30 10:55:01;;;;;;;12.00;11.10;;;5.40;99.90;;;;;;4940392;29;20212;-80
2023/01/30 10:57:39;;;;;;;12.10;11.10;;;5.40;99.90;;;;;;4919099;29;20208;-81
2023/01/30 11:00:13;;;;;;;11.87;11.07;;;5.50;99.90;;;;;;4917207;29;20220;-82
2023/01/30 11:02:47;;;;;;;11.40;10.60;;;5.50;99.90;;;;;;4924394;29;20224;-80
2023/01/30 11:05:19;;;;;;;11.63;10.80;;;5.50;99.90;;;;;;4921596;29;20248;-82
2023/01/30 11:07:47;;;;;;;11.30;10.60;;;5.50;99.90;;;;;;4919409;29;20212;-81
2023/01/30 11:10:17;;;;;;;11.53;10.73;;;5.40;99.90;;;;;;4925378;29;20280;-81
2023/01/30 11:12:43;;;;;;;11.30;10.50;;;5.40;99.90;;;;;;4920099;29;20230;-81
2023/01/30 11:15:11;;;;;;;11.70;10.90;;;5.50;99.90;;;;;;4933221;29;20205;-80
2023/01/30 11:17:41;;;;;;;11.53;10.70;;;5.50;99.90;;;;;;4919232;29;20238;-80
2023/01/30 11:20:14;;;;;;;11.60;10.80;;;5.50;99.90;;;;;;4934343;29;20336;-82
2023/01/30 11:22:51;;;;;;;12.20;11.23;;;5.50;99.90;;;;;;4921401;29;20264;-81
2023/01/30 11:25:20;;;;;;;12.27;11.40;;;5.50;99.90;;;;;;4926826;29;20204;-82
2023/01/30 11:27:54;;;;;;;12.33;11.27;;;5.50;99.90;;;;;;4926704;29;20689;-81
2023/01/30 11:30:26;;;;;;;12.40;11.30;;;5.60;99.90;;;;;;4926366;29;20299;-81
2023/01/30 11:33:06;;;;;;;11.23;10.43;;;5.70;99.90;;;;;;4926874;29;20200;-80
2023/01/30 11:35:39;;;;;;;12.10;11.10;;;5.70;99.90;;;;;;4913083;29;20199;-80
2023/01/30 11:38:19;;;;;;;12.43;11.53;;;5.70;99.90;;;;;;4919831;29;20206;-81
2023/01/30 11:40:46;;;;;;;12.10;11.30;;;5.70;99.90;;;;;;4917458;29;20618;-82
2023/01/30 11:43:14;;;;;;;11.63;10.83;;;5.80;99.90;;;;;;4921828;29;20261;-82
2023/01/30 11:45:44;;;;;;;11.50;10.70;;;5.80;99.90;;;;;;4921286;29;20210;-81
2023/01/30 11:48:16;;;;;;;11.50;10.70;;;5.80;99.90;;;;;;4923298;29;20202;-82
2023/01/30 11:50:44;;;;;;;11.40;10.70;;;5.80;99.90;;;;;;4917289;29;20208;-81
2023/01/30 11:53:24;;;;;;;11.27;10.57;;;5.90;99.90;;;;;;4924811;29;20246;-81
2023/01/30 11:55:51;;;;;;;10.83;10.13;;;5.90;99.90;;;;;;4938962;29;20279;-80
2023/01/30 11:58:18;;;;;;;11.30;10.60;;;5.90;99.90;;;;;;4920610;29;20558;-80
2023/01/30 12:00:48;;;;;;;11.17;10.47;;;5.90;99.90;;;;;;4924312;29;20235;-80
2023/01/30 12:03:19;;;;;;;11.13;10.43;;;6.00;99.90;;;;;;4922150;29;20197;-81
2023/01/30 12:05:47;;;;;;;11.30;10.60;;;6.00;99.90;;;;;;4922276;29;20214;-79
2023/01/30 12:08:25;;;;;;;11.13;10.43;;;6.00;99.90;;;;;;4928822;29;20204;-80
2023/01/30 12:10:57;;;;;;;12.13;11.33;;;5.90;99.90;;;;;;4925748;29;20224;-81
2023/01/30 12:13:30;;;;;;;11.97;10.97;;;6.10;99.90;;;;;;4923492;29;20208;-81
2023/01/30 12:16:08;;;;;;;11.40;10.70;;;6.50;99.90;;;;;;4898077;29;20196;-81
2023/01/30 12:18:41;;;;;;;11.03;10.43;;;6.60;99.90;;;;;;4934295;29;20266;-82
2023/01/30 12:21:20;;;;;;;11.80;11.00;;;6.40;99.90;;;;;;4939025;28;20694;-80
2023/01/30 12:23:57;;;;;;;11.80;11.10;;;6.20;99.90;;;;;;4924483;29;20221;-81
2023/01/30 12:26:30;;;;;;;11.53;10.83;;;6.10;99.90;;;;;;4925847;29;20675;-83
2023/01/30 12:29:04;;;;;;;11.73;10.93;;;5.90;99.90;;;;;;4923163;29;20213;-81
2023/01/30 12:31:34;;;;;;;11.80;10.90;;;5.80;99.90;;;;;;4912887;29;20233;-81
2023/01/30 12:34:01;;;;;;;12.37;11.60;;;5.80;99.90;;;;;;4919453;29;20209;-82
2023/01/30 12:36:42;;;;;;;12.00;11.20;;;5.70;99.90;;;;;;4926218;29;20212;-81
2023/01/30 12:39:28;;;;;;;11.87;11.07;;;5.70;99.90;;;;;;4922477;29;20250;-81
2023/01/30 12:42:14;;;;;;;11.63;10.93;;;5.60;99.90;;;;;;4922792;29;20629;-81
2023/01/30 12:44:54;;;;;;;11.83;11.10;;;5.60;99.90;;;;;;4917814;29;20218;-81
2023/01/30 12:47:36;;;;;;;11.80;10.90;;;5.50;99.90;;;;;;4924350;29;20736;-80
2023/01/30 12:50:23;;;;;;;11.70;11.00;;;5.50;99.90;;;;;;4922536;29;20263;-81
2023/01/30 12:53:04;;;;;;;11.90;11.10;;;5.60;99.90;;;;;;4923244;29;20640;-82
2023/01/30 12:55:42;;;;;;;12.13;11.23;;;5.50;99.90;;;;;;4917014;29;20225;-80
2023/01/30 12:58:15;;;;;;;11.20;10.50;;;5.50;99.90;;;;;;4925162;29;20205;-83
2023/01/30 13:01:02;;;;;;;11.30;10.60;;;5.40;99.90;;;;;;4923960;29;20297;-82
2023/01/30 13:03:38;;;;;;;11.73;10.90;;;5.40;99.90;;;;;;4923228;29;20211;-81
2023/01/30 13:06:14;;;;;;;11.90;11.10;;;5.40;99.90;;;;;;4925374;29;20215;-81
2023/01/30 13:08:57;;;;;;;12.07;11.27;;;5.40;99.90;;;;;;4924574;29;20628;-82
2023/01/30 13:11:44;;;;;;;11.50;10.80;;;5.40;99.90;;;;;;4931186;29;20267;-82
2023/01/30 13:14:21;;;;;;;12.23;11.23;;;5.40;99.90;;;;;;4930280;29;20726;-82
2023/01/30 13:17:14;;;;;;;11.80;11.00;;;5.30;99.90;;;;;;4927876;29;20213;-77
2023/01/30 13:19:46;;;;;;;12.17;11.30;;;5.30;99.90;;;;;;4925830;29;20704;-78
2023/01/30 13:22:17;;;;;;;12.30;11.47;;;5.20;99.90;;;;;;4929564;29;20221;-78
2023/01/30 13:24:57;;;;;;;12.20;11.30;;;5.20;99.90;;;;;;4927475;29;20208;-76
2023/01/30 13:27:28;;;;;;;12.37;11.47;;;5.10;99.90;;;;;;4928873;29;20251;-78
2023/01/30 13:29:56;;;;;;;12.50;11.60;;;5.10;99.90;;;;;;4926466;29;20269;-77
2023/01/30 13:32:34;;;;;;;12.60;11.70;;;5.10;99.90;;;;;;4921082;29;20231;-77
2023/01/30 13:35:03;;;;;;;12.63;11.73;;;5.00;99.90;;;;;;4928940;29;20255;-78
2023/01/30 13:37:31;;;;;;;12.30;11.30;;;5.00;99.90;;;;;;4917775;29;20200;-77
2023/01/30 13:40:02;;;;;;;13.00;12.00;;;5.00;99.90;;;;;;4924440;29;20643;-78
2023/01/30 13:42:36;;;;;;;12.20;11.37;;;5.00;99.90;;;;;;4918463;29;20580;-77
2023/01/30 13:45:05;;;;;;;12.53;11.63;;;4.90;99.90;;;;;;4928258;29;20204;-78
2023/01/30 13:47:44;;;;;;;12.57;11.67;;;4.90;99.90;;;;;;4926519;29;20209;-77
2023/01/30 13:50:40;;;;;;;12.37;11.50;;;4.90;99.90;;;;;;4926790;29;20335;-78
2023/01/30 13:53:15;;;;;;;11.83;11.03;;;4.90;99.90;;;;;;4937582;29;20252;-78
2023/01/30 13:55:49;;;;;;;13.23;12.20;;;4.90;99.90;;;;;;4926699;29;20271;-81
2023/01/30 13:58:31;;;;;;;13.23;12.13;;;4.90;99.90;;;;;;4922118;29;20216;-76
2023/01/30 14:00:58;;;;;;;13.47;12.40;;;4.90;99.90;;;;;;4924276;29;20228;-77
2023/01/30 14:03:31;;;;;;;13.80;12.70;;;4.90;99.90;;;;;;4924331;29;20204;-76
2023/01/30 14:06:26;;;;;;;13.00;12.10;;;4.90;99.90;;;;;;4928450;29;20940;-76
2023/01/30 14:08:58;;;;;;;14.17;13.07;;;4.80;99.90;;;;;;4923989;29;20212;-77
2023/01/30 14:11:34;;;;;;;14.03;12.83;;;4.70;99.90;;;;;;4928318;29;20252;-78
2023/01/30 14:14:06;;;;;;;12.33;11.53;;;4.70;99.90;;;;;;4929672;29;20211;-77
2023/01/30 14:16:44;;;;;;;12.60;11.80;;;4.70;99.90;;;;;;4925268;29;20560;-78
2023/01/30 14:19:44;;;;;;;15.20;13.90;;;4.70;99.90;;;;;;4926155;29;20207;-78
2023/01/30 14:22:22;;;;;;;13.30;12.20;;;4.60;99.90;;;;;;4916042;29;20577;-78
2023/01/30 14:25:26;;;;;;;12.67;11.77;;;4.60;99.90;;;;;;4928479;29;20259;-78
2023/01/30 14:27:54;;;;;;;12.23;11.43;;;4.50;99.90;;;;;;4921454;29;20199;-76
2023/01/30 14:30:37;;;;;;;12.40;11.47;;;4.50;99.90;;;;;;4927755;29;20197;-77
2023/01/30 14:33:30;;;;;;;12.77;11.87;;;4.40;99.90;;;;;;4925880;29;20215;-77
2023/01/30 14:36:31;;;;;;;12.03;11.23;;;4.40;99.90;;;;;;4924934;29;20200;-77
2023/01/30 14:39:36;;;;;;;12.17;11.27;;;4.30;99.90;;;;;;4925944;29;20263;-78
2023/01/30 14:42:28;;;;;;;12.53;11.63;;;4.30;99.90;;;;;;4933310;29;20239;-82
2023/01/30 14:45:00;;;;;;;12.60;11.70;;;4.20;99.90;;;;;;4913184;29;20212;-82
2023/01/30 14:47:30;;;;;;;12.20;11.30;;;4.20;99.90;;;;;;4917191;29;20657;-83
2023/01/30 14:49:59;;;;;;;13.47;12.47;;;4.10;99.90;;;;;;4922801;29;20196;-82
2023/01/30 14:52:36;;;;;;;13.10;12.10;;;4.10;99.90;;;;;;4928159;29;20215;-82
2023/01/30 14:55:04;;;;;;;12.63;11.83;;;4.10;99.90;;;;;;4926395;29;20211;-82
2023/01/30 14:57:33;;;;;;;13.00;12.10;;;4.10;99.90;;;;;;4924347;29;20307;-79
2023/01/30 15:00:05;;;;;;;12.37;11.43;;;4.00;99.90;;;;;;4914136;29;20255;-78
2023/01/30 15:02:42;;;;;;;12.70;11.80;;;3.90;99.90;;;;;;4926510;29;20234;-78
2023/01/30 15:05:13;;;;;;;12.67;11.83;;;3.90;99.90;;;;;;4932329;29;20266;-77
2023/01/30 15:07:43;;;;;;;13.57;12.57;;;3.90;99.90;;;;;;4926763;29;20251;-77
2023/01/30 15:10:23;;;;;;;13.00;12.10;;;3.80;99.90;;;;;;4932206;29;20271;-76
2023/01/30 15:13:13;;;;;;;13.60;12.53;;;3.80;99.90;;;;;;4924764;29;20207;-80
2023/01/30 15:15:48;;;;;;;13.20;12.27;;;3.80;99.90;;;;;;4923253;29;20259;-79
2023/01/30 15:18:36;;;;;;;13.10;12.20;;;3.70;99.90;;;;;;4926420;29;20214;-78
2023/01/30 15:21:30;;;;;;;13.30;12.30;;;3.70;99.90;;;;;;4928914;29;20223;-77
2023/01/30 15:24:45;;;;;;;13.10;12.20;;;3.60;99.90;;;;;;4934406;29;20203;-78
2023/01/30 15:27:21;;;;;;;13.33;12.33;;;3.60;99.90;;;;;;4828327;29;20226;-77
2023/01/30 15:30:02;;;;;;;13.10;12.10;;;3.60;99.90;;;;;;4921517;29;20287;-77
2023/01/30 15:32:30;;;;;;;12.77;11.97;;;3.60;99.90;;;;;;4920062;29;20279;-77
2023/01/30 15:35:00;;;;;;;13.23;12.33;;;3.60;99.90;;;;;;4929997;29;20298;-78
2023/01/30 15:37:36;;;;;;;13.57;12.67;;;3.60;99.90;;;;;;4915805;29;20192;-81
2023/01/30 15:40:29;;;;;;;13.80;12.90;;;3.60;99.90;;;;;;4926854;29;20207;-77
2023/01/30 15:43:14;;;;;;;14.10;13.10;;;3.60;99.90;;;;;;4896798;29;20228;-77
2023/01/30 15:45:54;;;;;;;13.30;12.40;;;3.60;99.90;;;;;;4913992;29;20271;-77
2023/01/30 15:48:40;;;;;;;13.60;12.67;;;3.50;99.90;;;;;;4928398;29;20333;-78
2023/01/30 15:51:13;;;;;;;13.27;12.37;;;3.50;99.90;;;;;;4926996;29;20231;-77
2023/01/30 15:53:43;;;;;;;12.90;12.00;;;3.50;99.90;;;;;;4923298;29;20685;-77
2023/01/30 15:56:16;;;;;;;12.40;11.60;;;3.40;99.90;;;;;;4915383;29;20354;-79
2023/01/30 15:58:44;;;;;;;13.17;12.27;;;3.30;99.90;;;;;;4910167;29;20263;-77
2023/01/30 16:01:14;;;;;;;12.80;11.90;;;3.30;99.90;;;;;;4929842;29;20310;-79